Portada
METAR-TAF:

Aeropuertos :

Viru-Viru, Bolivia

Aeropuerto Internacional Viru Viru

latitud: 17-38S, longitud: 063-08W, altitud: 373 m

Observación

El informe se hizo hace 16 minutos, a las 21:00 UTC
Viento 14 kt del norte-noroeste
Temperatura 28°C
Humedad 42%
Presión 1013 hPa
Visibilidad 10 km o más

METAR: SLVR 022100Z 34014KT 9999 NSC 28/14 Q1013

Hora: 17:16 (21:16 UTC)

Pronóstico

El informe se hizo hace 5 horas y 26 minutos, a las 15:50 UTC
Pronóstico válido del 02 a las 18 UTC al 03 a las 18 UTC
Viento 15 kt del norte-noroeste
Visibilidad 10 km o más
Evolucionando progresivamente
del 02 a las 23 UTC al 03 a las 01 UTC
Viento 10 kt del sur
Nubes dispersas a una altura de 7000 ft

TAF: SLVR 021550Z 0218/0318 33015KT 9999 NSC TX28/0219Z TN16/0311Z BECMG 0223/0301 18010KT SCT070

METAR-TAF

Observaciones y pronósticos meteorológicos de más de 4000 aeropuertos (mensajes METAR y TAF).

Los puntos amarillos y rojos representan las estaciones disponibles.

Ponga el ratón en el punto deseado para ver el nombre de la estación.

Haga clic para ver las observaciones y los pronósticos meteorológicos.

Para cambiar el mapa : haga clic en los botones verdes con una cruz de color negro para hacer un zoom, en el botón verde con un guión para alejar o en las flechas verdes para mapas adyacentes.


METAR-TAF: